sensor_id;sensor_type;location;lat;lon;timestamp;temperature;humidity
25188;DHT22;13141;50.414;8.050;2022-07-29T00:01:06;21.10;78.90
25188;DHT22;13141;50.414;8.050;2022-07-29T00:03:31;21.20;79.90
25188;DHT22;13141;50.414;8.050;2022-07-29T00:05:57;21.20;79.00
25188;DHT22;13141;50.414;8.050;2022-07-29T00:08:22;21.40;78.50
25188;DHT22;13141;50.414;8.050;2022-07-29T00:10:48;21.30;77.40
25188;DHT22;13141;50.414;8.050;2022-07-29T00:13:13;21.30;77.20
25188;DHT22;13141;50.414;8.050;2022-07-29T00:15:39;21.30;78.20
25188;DHT22;13141;50.414;8.050;2022-07-29T00:18:05;21.30;77.80
25188;DHT22;13141;50.414;8.050;2022-07-29T00:20:30;21.30;77.00
25188;DHT22;13141;50.414;8.050;2022-07-29T00:22:56;21.20;77.10
25188;DHT22;13141;50.414;8.050;2022-07-29T00:25:21;21.30;76.30
25188;DHT22;13141;50.414;8.050;2022-07-29T00:27:47;21.20;75.00
25188;DHT22;13141;50.414;8.050;2022-07-29T00:30:13;21.20;74.00
25188;DHT22;13141;50.414;8.050;2022-07-29T00:32:39;21.50;73.70
25188;DHT22;13141;50.414;8.050;2022-07-29T00:35:05;21.60;73.40
25188;DHT22;13141;50.414;8.050;2022-07-29T00:37:49;21.30;73.20
25188;DHT22;13141;50.414;8.050;2022-07-29T00:40:15;21.30;72.40
25188;DHT22;13141;50.414;8.050;2022-07-29T00:42:49;21.30;77.20
25188;DHT22;13141;50.414;8.050;2022-07-29T00:45:15;21.20;79.70
25188;DHT22;13141;50.414;8.050;2022-07-29T00:47:41;21.10;74.80
25188;DHT22;13141;50.414;8.050;2022-07-29T00:50:08;21.30;73.40
25188;DHT22;13141;50.414;8.050;2022-07-29T00:52:40;21.10;73.30
25188;DHT22;13141;50.414;8.050;2022-07-29T00:55:09;21.20;72.50
25188;DHT22;13141;50.414;8.050;2022-07-29T00:57:36;21.10;72.50
25188;DHT22;13141;50.414;8.050;2022-07-29T01:00:03;21.10;71.70
25188;DHT22;13141;50.414;8.050;2022-07-29T01:02:29;21.10;73.90
25188;DHT22;13141;50.414;8.050;2022-07-29T01:04:56;21.10;78.40
25188;DHT22;13141;50.414;8.050;2022-07-29T01:07:23;21.00;80.20
25188;DHT22;13141;50.414;8.050;2022-07-29T01:09:50;21.00;83.40
25188;DHT22;13141;50.414;8.050;2022-07-29T01:12:25;20.90;86.20
25188;DHT22;13141;50.414;8.050;2022-07-29T01:14:52;20.70;90.10
25188;DHT22;13141;50.414;8.050;2022-07-29T01:17:39;20.60;90.60
25188;DHT22;13141;50.414;8.050;2022-07-29T01:26:00;20.40;95.40
25188;DHT22;13141;50.414;8.050;2022-07-29T01:31:07;20.30;94.20
25188;DHT22;13141;50.414;8.050;2022-07-29T01:33:41;20.10;94.20
25188;DHT22;13141;50.414;8.050;2022-07-29T01:39:08;19.90;97.70
25188;DHT22;13141;50.414;8.050;2022-07-29T01:41:38;19.80;98.40
25188;DHT22;13141;50.414;8.050;2022-07-29T01:44:12;19.90;97.80
25188;DHT22;13141;50.414;8.050;2022-07-29T01:46:49;19.90;96.90
25188;DHT22;13141;50.414;8.050;2022-07-29T01:49:18;19.80;96.90
25188;DHT22;13141;50.414;8.050;2022-07-29T01:51:56;19.80;98.40
25188;DHT22;13141;50.414;8.050;2022-07-29T01:54:34;19.90;98.50
25188;DHT22;13141;50.414;8.050;2022-07-29T01:57:01;19.70;98.20
25188;DHT22;13141;50.414;8.050;2022-07-29T01:59:29;19.70;98.10
25188;DHT22;13141;50.414;8.050;2022-07-29T02:01:58;19.70;98.80
25188;DHT22;13141;50.414;8.050;2022-07-29T02:04:25;19.70;98.90
25188;DHT22;13141;50.414;8.050;2022-07-29T02:06:53;19.70;99.10
25188;DHT22;13141;50.414;8.050;2022-07-29T02:09:21;19.90;98.80
25188;DHT22;13141;50.414;8.050;2022-07-29T02:11:53;19.60;99.00
25188;DHT22;13141;50.414;8.050;2022-07-29T02:14:20;19.60;99.60
25188;DHT22;13141;50.414;8.050;2022-07-29T02:16:49;19.60;99.00
25188;DHT22;13141;50.414;8.050;2022-07-29T02:19:18;19.50;99.20
25188;DHT22;13141;50.414;8.050;2022-07-29T02:21:45;19.40;99.10
25188;DHT22;13141;50.414;8.050;2022-07-29T02:24:12;19.40;99.50
25188;DHT22;13141;50.414;8.050;2022-07-29T02:26:41;19.20;99.00
25188;DHT22;13141;50.414;8.050;2022-07-29T02:29:06;19.30;99.00
25188;DHT22;13141;50.414;8.050;2022-07-29T02:31:34;19.00;99.90
25188;DHT22;13141;50.414;8.050;2022-07-29T02:34:06;18.90;99.90
25188;DHT22;13141;50.414;8.050;2022-07-29T02:36:34;18.80;99.90
25188;DHT22;13141;50.414;8.050;2022-07-29T02:39:00;18.60;99.20
25188;DHT22;13141;50.414;8.050;2022-07-29T02:41:35;18.70;99.90
25188;DHT22;13141;50.414;8.050;2022-07-29T02:44:06;18.80;99.90
25188;DHT22;13141;50.414;8.050;2022-07-29T02:46:35;18.80;99.50
25188;DHT22;13141;50.414;8.050;2022-07-29T02:49:09;18.90;99.50
25188;DHT22;13141;50.414;8.050;2022-07-29T02:51:44;18.90;99.90
25188;DHT22;13141;50.414;8.050;2022-07-29T02:54:14;18.90;99.90
25188;DHT22;13141;50.414;8.050;2022-07-29T02:56:44;18.90;99.90
25188;DHT22;13141;50.414;8.050;2022-07-29T02:59:11;19.00;99.90
25188;DHT22;13141;50.414;8.050;2022-07-29T03:01:40;19.20;99.90
25188;DHT22;13141;50.414;8.050;2022-07-29T03:04:08;18.80;99.90
25188;DHT22;13141;50.414;8.050;2022-07-29T03:06:35;18.80;99.90
25188;DHT22;13141;50.414;8.050;2022-07-29T03:09:03;18.80;99.90
25188;DHT22;13141;50.414;8.050;2022-07-29T03:11:29;18.80;99.90
25188;DHT22;13141;50.414;8.050;2022-07-29T03:13:55;18.70;99.90
25188;DHT22;13141;50.414;8.050;2022-07-29T03:16:21;18.60;99.90
25188;DHT22;13141;50.414;8.050;2022-07-29T03:18:49;18.70;99.90
25188;DHT22;13141;50.414;8.050;2022-07-29T03:21:15;18.50;99.90
25188;DHT22;13141;50.414;8.050;2022-07-29T03:23:43;18.40;99.90
25188;DHT22;13141;50.414;8.050;2022-07-29T03:26:10;18.40;99.90
25188;DHT22;13141;50.414;8.050;2022-07-29T03:28:36;18.40;99.90
25188;DHT22;13141;50.414;8.050;2022-07-29T03:31:01;18.40;99.90
25188;DHT22;13141;50.414;8.050;2022-07-29T03:33:27;18.40;99.90
25188;DHT22;13141;50.414;8.050;2022-07-29T03:35:54;18.40;99.90
25188;DHT22;13141;50.414;8.050;2022-07-29T03:38:20;18.40;99.90
25188;DHT22;13141;50.414;8.050;2022-07-29T03:40:53;18.30;99.90
25188;DHT22;13141;50.414;8.050;2022-07-29T03:43:19;18.30;99.90
25188;DHT22;13141;50.414;8.050;2022-07-29T03:45:47;18.30;99.90
25188;DHT22;13141;50.414;8.050;2022-07-29T03:48:18;18.20;99.90
25188;DHT22;13141;50.414;8.050;2022-07-29T03:50:45;18.20;99.90
25188;DHT22;13141;50.414;8.050;2022-07-29T03:53:11;18.10;99.90
25188;DHT22;13141;50.414;8.050;2022-07-29T03:55:41;18.10;99.90
25188;DHT22;13141;50.414;8.050;2022-07-29T03:58:07;18.10;99.90
25188;DHT22;13141;50.414;8.050;2022-07-29T04:00:34;18.10;99.90
25188;DHT22;13141;50.414;8.050;2022-07-29T04:03:01;18.10;99.90
25188;DHT22;13141;50.414;8.050;2022-07-29T04:05:28;18.10;99.90
25188;DHT22;13141;50.414;8.050;2022-07-29T04:07:54;18.10;99.90
25188;DHT22;13141;50.414;8.050;2022-07-29T04:10:20;18.00;99.90
25188;DHT22;13141;50.414;8.050;2022-07-29T04:12:45;18.00;99.90
25188;DHT22;13141;50.414;8.050;2022-07-29T04:15:11;17.80;99.90
25188;DHT22;13141;50.414;8.050;2022-07-29T04:17:37;17.90;99.90
25188;DHT22;13141;50.414;8.050;2022-07-29T04:20:03;17.70;99.90
25188;DHT22;13141;50.414;8.050;2022-07-29T04:22:29;17.60;99.90
25188;DHT22;13141;50.414;8.050;2022-07-29T04:24:55;17.60;99.90
25188;DHT22;13141;50.414;8.050;2022-07-29T04:27:20;17.70;99.90
25188;DHT22;13141;50.414;8.050;2022-07-29T04:29:46;17.70;99.90
25188;DHT22;13141;50.414;8.050;2022-07-29T04:32:11;17.40;99.90
25188;DHT22;13141;50.414;8.050;2022-07-29T04:34:37;17.20;99.90
25188;DHT22;13141;50.414;8.050;2022-07-29T04:37:02;17.20;99.90
25188;DHT22;13141;50.414;8.050;2022-07-29T04:39:28;17.30;99.90
25188;DHT22;13141;50.414;8.050;2022-07-29T04:41:54;17.30;99.90
25188;DHT22;13141;50.414;8.050;2022-07-29T04:44:19;17.20;99.90
25188;DHT22;13141;50.414;8.050;2022-07-29T04:46:45;17.00;99.90
25188;DHT22;13141;50.414;8.050;2022-07-29T04:49:10;17.00;99.90
25188;DHT22;13141;50.414;8.050;2022-07-29T04:51:36;17.10;99.90
25188;DHT22;13141;50.414;8.050;2022-07-29T04:54:01;17.20;99.90
25188;DHT22;13141;50.414;8.050;2022-07-29T04:56:27;17.30;99.90
25188;DHT22;13141;50.414;8.050;2022-07-29T04:58:53;17.20;99.90
25188;DHT22;13141;50.414;8.050;2022-07-29T05:01:19;17.30;99.90
25188;DHT22;13141;50.414;8.050;2022-07-29T05:03:45;17.30;99.90
25188;DHT22;13141;50.414;8.050;2022-07-29T05:06:11;17.40;99.90
25188;DHT22;13141;50.414;8.050;2022-07-29T05:08:37;17.40;99.90
25188;DHT22;13141;50.414;8.050;2022-07-29T05:11:03;17.60;99.90
25188;DHT22;13141;50.414;8.050;2022-07-29T05:13:29;17.30;99.90
25188;DHT22;13141;50.414;8.050;2022-07-29T05:15:55;17.40;99.90
25188;DHT22;13141;50.414;8.050;2022-07-29T05:18:20;17.50;99.90
25188;DHT22;13141;50.414;8.050;2022-07-29T05:20:46;17.40;99.90
25188;DHT22;13141;50.414;8.050;2022-07-29T05:23:12;17.30;99.90
25188;DHT22;13141;50.414;8.050;2022-07-29T05:25:41;17.30;99.90
25188;DHT22;13141;50.414;8.050;2022-07-29T05:28:06;17.20;99.90
25188;DHT22;13141;50.414;8.050;2022-07-29T05:30:32;17.20;99.90
25188;DHT22;13141;50.414;8.050;2022-07-29T05:32:58;17.20;99.90
25188;DHT22;13141;50.414;8.050;2022-07-29T05:35:23;17.60;99.90
25188;DHT22;13141;50.414;8.050;2022-07-29T05:37:49;17.50;99.90
25188;DHT22;13141;50.414;8.050;2022-07-29T05:40:14;17.80;99.90
25188;DHT22;13141;50.414;8.050;2022-07-29T05:42:40;17.60;99.90
25188;DHT22;13141;50.414;8.050;2022-07-29T05:45:06;17.70;99.90
25188;DHT22;13141;50.414;8.050;2022-07-29T05:47:31;17.80;99.90
25188;DHT22;13141;50.414;8.050;2022-07-29T05:49:57;17.90;99.90
25188;DHT22;13141;50.414;8.050;2022-07-29T05:52:23;18.00;99.90
25188;DHT22;13141;50.414;8.050;2022-07-29T05:54:48;18.00;99.90
25188;DHT22;13141;50.414;8.050;2022-07-29T05:57:21;18.10;99.90
25188;DHT22;13141;50.414;8.050;2022-07-29T05:59:48;18.10;99.90
25188;DHT22;13141;50.414;8.050;2022-07-29T06:02:14;18.20;99.90
25188;DHT22;13141;50.414;8.050;2022-07-29T06:04:40;18.30;99.90
25188;DHT22;13141;50.414;8.050;2022-07-29T06:07:06;18.40;99.90
25188;DHT22;13141;50.414;8.050;2022-07-29T06:09:32;18.50;99.90
25188;DHT22;13141;50.414;8.050;2022-07-29T06:11:58;18.70;99.90
25188;DHT22;13141;50.414;8.050;2022-07-29T06:14:24;18.80;99.90
25188;DHT22;13141;50.414;8.050;2022-07-29T06:16:50;19.00;99.90
25188;DHT22;13141;50.414;8.050;2022-07-29T06:19:16;19.30;99.90
25188;DHT22;13141;50.414;8.050;2022-07-29T06:21:42;19.20;99.90
25188;DHT22;13141;50.414;8.050;2022-07-29T06:24:10;19.30;99.90
25188;DHT22;13141;50.414;8.050;2022-07-29T06:26:36;19.40;99.90
25188;DHT22;13141;50.414;8.050;2022-07-29T06:29:01;19.30;99.90
25188;DHT22;13141;50.414;8.050;2022-07-29T06:31:27;19.40;99.90
25188;DHT22;13141;50.414;8.050;2022-07-29T06:33:52;19.30;99.90
25188;DHT22;13141;50.414;8.050;2022-07-29T06:36:18;19.40;99.90
25188;DHT22;13141;50.414;8.050;2022-07-29T06:38:44;19.50;99.90
25188;DHT22;13141;50.414;8.050;2022-07-29T06:41:09;19.50;99.90
25188;DHT22;13141;50.414;8.050;2022-07-29T06:43:39;19.80;99.90
25188;DHT22;13141;50.414;8.050;2022-07-29T06:46:12;19.70;99.90
25188;DHT22;13141;50.414;8.050;2022-07-29T06:48:38;19.90;99.90
25188;DHT22;13141;50.414;8.050;2022-07-29T06:51:05;20.20;99.40
25188;DHT22;13141;50.414;8.050;2022-07-29T06:53:32;20.20;99.20
25188;DHT22;13141;50.414;8.050;2022-07-29T06:55:59;20.40;99.00
25188;DHT22;13141;50.414;8.050;2022-07-29T06:58:26;20.50;98.20
25188;DHT22;13141;50.414;8.050;2022-07-29T07:00:51;20.70;98.10
25188;DHT22;13141;50.414;8.050;2022-07-29T07:03:17;20.80;98.50
25188;DHT22;13141;50.414;8.050;2022-07-29T07:05:44;20.80;98.50
25188;DHT22;13141;50.414;8.050;2022-07-29T07:08:11;20.90;98.30
25188;DHT22;13141;50.414;8.050;2022-07-29T07:10:37;21.10;98.00
25188;DHT22;13141;50.414;8.050;2022-07-29T07:13:03;21.20;98.30
25188;DHT22;13141;50.414;8.050;2022-07-29T07:15:29;21.30;98.20
25188;DHT22;13141;50.414;8.050;2022-07-29T07:17:55;21.40;98.00
25188;DHT22;13141;50.414;8.050;2022-07-29T07:20:20;21.50;97.70
25188;DHT22;13141;50.414;8.050;2022-07-29T07:22:46;21.70;97.60
25188;DHT22;13141;50.414;8.050;2022-07-29T07:25:12;21.90;97.80
25188;DHT22;13141;50.414;8.050;2022-07-29T07:27:38;22.20;97.10
25188;DHT22;13141;50.414;8.050;2022-07-29T07:30:05;22.20;97.40
25188;DHT22;13141;50.414;8.050;2022-07-29T07:32:32;22.50;97.00
25188;DHT22;13141;50.414;8.050;2022-07-29T07:34:58;22.70;96.30
25188;DHT22;13141;50.414;8.050;2022-07-29T07:37:24;22.90;96.70
25188;DHT22;13141;50.414;8.050;2022-07-29T07:39:53;23.00;96.20
25188;DHT22;13141;50.414;8.050;2022-07-29T07:42:19;23.10;95.70
25188;DHT22;13141;50.414;8.050;2022-07-29T07:44:45;23.20;95.90
25188;DHT22;13141;50.414;8.050;2022-07-29T07:47:11;23.60;95.70
25188;DHT22;13141;50.414;8.050;2022-07-29T07:49:37;23.40;95.10
25188;DHT22;13141;50.414;8.050;2022-07-29T07:52:04;23.50;95.00
25188;DHT22;13141;50.414;8.050;2022-07-29T07:54:30;23.60;95.10
25188;DHT22;13141;50.414;8.050;2022-07-29T07:56:56;23.70;94.80
25188;DHT22;13141;50.414;8.050;2022-07-29T07:59:21;23.80;94.30
25188;DHT22;13141;50.414;8.050;2022-07-29T08:01:47;23.90;94.90
25188;DHT22;13141;50.414;8.050;2022-07-29T08:04:13;24.10;94.00
25188;DHT22;13141;50.414;8.050;2022-07-29T08:06:38;24.50;94.90
25188;DHT22;13141;50.414;8.050;2022-07-29T08:09:04;24.60;94.00
25188;DHT22;13141;50.414;8.050;2022-07-29T08:11:30;24.60;93.80
25188;DHT22;13141;50.414;8.050;2022-07-29T08:13:56;24.70;94.00
25188;DHT22;13141;50.414;8.050;2022-07-29T08:16:21;24.80;93.70
25188;DHT22;13141;50.414;8.050;2022-07-29T08:18:47;24.80;93.80
25188;DHT22;13141;50.414;8.050;2022-07-29T08:21:14;25.00;93.60
25188;DHT22;13141;50.414;8.050;2022-07-29T08:23:41;25.10;93.10
25188;DHT22;13141;50.414;8.050;2022-07-29T08:26:17;25.00;92.60
25188;DHT22;13141;50.414;8.050;2022-07-29T08:28:45;25.00;92.60
25188;DHT22;13141;50.414;8.050;2022-07-29T08:31:12;24.60;91.70
25188;DHT22;13141;50.414;8.050;2022-07-29T08:33:38;25.10;92.50
25188;DHT22;13141;50.414;8.050;2022-07-29T08:36:04;25.20;93.60
25188;DHT22;13141;50.414;8.050;2022-07-29T08:38:30;25.20;93.30
25188;DHT22;13141;50.414;8.050;2022-07-29T08:40:55;25.30;92.30
25188;DHT22;13141;50.414;8.050;2022-07-29T08:43:21;25.50;92.20
25188;DHT22;13141;50.414;8.050;2022-07-29T08:45:48;25.50;91.80
25188;DHT22;13141;50.414;8.050;2022-07-29T08:48:16;25.60;92.00
25188;DHT22;13141;50.414;8.050;2022-07-29T08:50:43;25.70;92.50
25188;DHT22;13141;50.414;8.050;2022-07-29T08:53:15;25.80;91.90
25188;DHT22;13141;50.414;8.050;2022-07-29T08:55:45;25.80;90.50
25188;DHT22;13141;50.414;8.050;2022-07-29T08:58:13;26.10;91.50
25188;DHT22;13141;50.414;8.050;2022-07-29T09:00:43;26.10;91.80
25188;DHT22;13141;50.414;8.050;2022-07-29T09:03:09;26.40;90.50
25188;DHT22;13141;50.414;8.050;2022-07-29T09:05:36;26.80;90.00
25188;DHT22;13141;50.414;8.050;2022-07-29T09:08:04;27.20;90.00
25188;DHT22;13141;50.414;8.050;2022-07-29T09:10:30;27.50;87.80
25188;DHT22;13141;50.414;8.050;2022-07-29T09:12:56;27.50;87.90
25188;DHT22;13141;50.414;8.050;2022-07-29T09:15:22;27.70;88.40
25188;DHT22;13141;50.414;8.050;2022-07-29T09:17:49;27.80;85.60
25188;DHT22;13141;50.414;8.050;2022-07-29T09:20:22;28.20;85.90
25188;DHT22;13141;50.414;8.050;2022-07-29T09:22:48;28.10;84.40
25188;DHT22;13141;50.414;8.050;2022-07-29T09:25:35;28.50;81.90
25188;DHT22;13141;50.414;8.050;2022-07-29T09:30:35;29.10;78.20
25188;DHT22;13141;50.414;8.050;2022-07-29T09:33:02;29.30;79.50
25188;DHT22;13141;50.414;8.050;2022-07-29T09:35:29;29.20;80.60
25188;DHT22;13141;50.414;8.050;2022-07-29T09:37:55;29.30;78.90
25188;DHT22;13141;50.414;8.050;2022-07-29T09:40:26;29.30;77.90
25188;DHT22;13141;50.414;8.050;2022-07-29T09:42:53;29.60;75.50
25188;DHT22;13141;50.414;8.050;2022-07-29T09:45:30;29.80;76.50
25188;DHT22;13141;50.414;8.050;2022-07-29T09:47:56;30.10;76.40
25188;DHT22;13141;50.414;8.050;2022-07-29T09:50:39;30.30;76.90
25188;DHT22;13141;50.414;8.050;2022-07-29T09:53:05;30.20;73.50
25188;DHT22;13141;50.414;8.050;2022-07-29T09:55:31;30.20;70.50
25188;DHT22;13141;50.414;8.050;2022-07-29T09:58:19;30.00;74.50
25188;DHT22;13141;50.414;8.050;2022-07-29T10:00:47;30.10;72.00
25188;DHT22;13141;50.414;8.050;2022-07-29T10:03:14;30.20;74.80
25188;DHT22;13141;50.414;8.050;2022-07-29T10:05:41;30.20;72.60
25188;DHT22;13141;50.414;8.050;2022-07-29T10:08:08;30.90;70.10
25188;DHT22;13141;50.414;8.050;2022-07-29T10:10:36;30.80;71.10
25188;DHT22;13141;50.414;8.050;2022-07-29T10:13:04;31.20;72.70
25188;DHT22;13141;50.414;8.050;2022-07-29T10:15:32;31.30;72.70
25188;DHT22;13141;50.414;8.050;2022-07-29T10:17:59;31.70;72.30
25188;DHT22;13141;50.414;8.050;2022-07-29T10:20:27;31.80;72.70
25188;DHT22;13141;50.414;8.050;2022-07-29T10:22:53;32.00;71.50
25188;DHT22;13141;50.414;8.050;2022-07-29T10:25:20;31.90;71.30
25188;DHT22;13141;50.414;8.050;2022-07-29T10:27:47;32.00;68.40
25188;DHT22;13141;50.414;8.050;2022-07-29T10:30:15;32.40;71.90
25188;DHT22;13141;50.414;8.050;2022-07-29T10:35:39;32.20;67.60
25188;DHT22;13141;50.414;8.050;2022-07-29T10:38:29;32.70;67.00
25188;DHT22;13141;50.414;8.050;2022-07-29T10:41:06;32.50;67.50
25188;DHT22;13141;50.414;8.050;2022-07-29T10:47:40;32.10;67.00
25188;DHT22;13141;50.414;8.050;2022-07-29T10:50:06;32.50;64.80
25188;DHT22;13141;50.414;8.050;2022-07-29T10:52:53;32.70;68.10
25188;DHT22;13141;50.414;8.050;2022-07-29T10:55:36;32.60;63.10
25188;DHT22;13141;50.414;8.050;2022-07-29T10:58:24;32.30;68.60
25188;DHT22;13141;50.414;8.050;2022-07-29T11:00:52;32.20;67.40
25188;DHT22;13141;50.414;8.050;2022-07-29T11:06:09;32.40;63.70
25188;DHT22;13141;50.414;8.050;2022-07-29T11:08:35;32.50;62.30
25188;DHT22;13141;50.414;8.050;2022-07-29T11:16:14;33.20;64.40
25188;DHT22;13141;50.414;8.050;2022-07-29T11:21:45;33.00;64.70
25188;DHT22;13141;50.414;8.050;2022-07-29T11:24:20;33.30;65.80
25188;DHT22;13141;50.414;8.050;2022-07-29T11:27:17;33.80;58.70
25188;DHT22;13141;50.414;8.050;2022-07-29T11:29:54;34.10;61.10
25188;DHT22;13141;50.414;8.050;2022-07-29T11:32:21;34.70;59.80
25188;DHT22;13141;50.414;8.050;2022-07-29T11:34:48;35.00;60.80
25188;DHT22;13141;50.414;8.050;2022-07-29T11:37:16;35.20;60.90
25188;DHT22;13141;50.414;8.050;2022-07-29T11:45:15;36.10;58.60
25188;DHT22;13141;50.414;8.050;2022-07-29T11:47:55;36.40;56.90
25188;DHT22;13141;50.414;8.050;2022-07-29T11:50:32;36.50;58.70
25188;DHT22;13141;50.414;8.050;2022-07-29T11:52:59;36.80;55.60
25188;DHT22;13141;50.414;8.050;2022-07-29T11:55:26;36.90;58.70
25188;DHT22;13141;50.414;8.050;2022-07-29T11:57:57;37.00;57.50
25188;DHT22;13141;50.414;8.050;2022-07-29T12:03:00;36.90;54.80
25188;DHT22;13141;50.414;8.050;2022-07-29T12:05:38;36.80;56.20
25188;DHT22;13141;50.414;8.050;2022-07-29T12:08:09;37.00;54.50
25188;DHT22;13141;50.414;8.050;2022-07-29T12:10:36;37.10;56.30
25188;DHT22;13141;50.414;8.050;2022-07-29T12:13:02;37.20;56.40
25188;DHT22;13141;50.414;8.050;2022-07-29T12:15:28;37.50;54.60
25188;DHT22;13141;50.414;8.050;2022-07-29T12:17:54;37.60;55.70
25188;DHT22;13141;50.414;8.050;2022-07-29T12:20:28;37.80;54.80
25188;DHT22;13141;50.414;8.050;2022-07-29T12:22:54;38.00;52.00
25188;DHT22;13141;50.414;8.050;2022-07-29T12:25:21;38.40;53.40
25188;DHT22;13141;50.414;8.050;2022-07-29T12:27:47;38.60;50.70
25188;DHT22;13141;50.414;8.050;2022-07-29T12:30:15;39.00;51.50
25188;DHT22;13141;50.414;8.050;2022-07-29T12:32:47;39.20;52.10
25188;DHT22;13141;50.414;8.050;2022-07-29T12:35:18;39.40;51.60
25188;DHT22;13141;50.414;8.050;2022-07-29T12:37:47;39.40;51.20
25188;DHT22;13141;50.414;8.050;2022-07-29T12:40:15;39.50;51.70
25188;DHT22;13141;50.414;8.050;2022-07-29T12:43:10;39.70;51.50
25188;DHT22;13141;50.414;8.050;2022-07-29T12:45:37;39.60;50.10
25188;DHT22;13141;50.414;8.050;2022-07-29T12:48:04;39.60;51.40
25188;DHT22;13141;50.414;8.050;2022-07-29T12:50:29;39.60;51.40
25188;DHT22;13141;50.414;8.050;2022-07-29T12:53:08;39.40;50.50
25188;DHT22;13141;50.414;8.050;2022-07-29T12:58:04;38.30;49.50
25188;DHT22;13141;50.414;8.050;2022-07-29T13:00:30;37.70;50.10
25188;DHT22;13141;50.414;8.050;2022-07-29T13:02:57;37.20;51.30
25188;DHT22;13141;50.414;8.050;2022-07-29T13:05:23;36.90;50.70
25188;DHT22;13141;50.414;8.050;2022-07-29T13:07:50;37.00;52.30
25188;DHT22;13141;50.414;8.050;2022-07-29T13:10:20;37.30;52.20
25188;DHT22;13141;50.414;8.050;2022-07-29T13:13:12;37.10;51.60
25188;DHT22;13141;50.414;8.050;2022-07-29T13:15:43;37.00;51.50
25188;DHT22;13141;50.414;8.050;2022-07-29T13:20:54;36.90;49.60
25188;DHT22;13141;50.414;8.050;2022-07-29T13:23:19;36.30;49.20
25188;DHT22;13141;50.414;8.050;2022-07-29T13:25:45;36.00;51.00
25188;DHT22;13141;50.414;8.050;2022-07-29T13:28:11;36.30;51.10
25188;DHT22;13141;50.414;8.050;2022-07-29T13:30:37;36.80;50.60
25188;DHT22;13141;50.414;8.050;2022-07-29T13:33:03;37.30;51.30
25188;DHT22;13141;50.414;8.050;2022-07-29T13:35:28;38.10;51.80
25188;DHT22;13141;50.414;8.050;2022-07-29T13:37:55;38.30;50.40
25188;DHT22;13141;50.414;8.050;2022-07-29T13:40:20;38.40;50.40
25188;DHT22;13141;50.414;8.050;2022-07-29T13:42:46;38.00;50.30
25188;DHT22;13141;50.414;8.050;2022-07-29T13:45:12;37.60;49.50
25188;DHT22;13141;50.414;8.050;2022-07-29T13:47:38;37.40;49.60
25188;DHT22;13141;50.414;8.050;2022-07-29T13:50:05;37.10;50.70
25188;DHT22;13141;50.414;8.050;2022-07-29T13:52:31;37.00;50.70
25188;DHT22;13141;50.414;8.050;2022-07-29T13:54:56;36.90;50.20
25188;DHT22;13141;50.414;8.050;2022-07-29T13:57:22;36.60;50.50
25188;DHT22;13141;50.414;8.050;2022-07-29T13:59:47;36.10;49.60
25188;DHT22;13141;50.414;8.050;2022-07-29T14:02:13;35.10;48.80
25188;DHT22;13141;50.414;8.050;2022-07-29T14:04:39;32.40;51.00
25188;DHT22;13141;50.414;8.050;2022-07-29T14:07:05;31.10;53.00
25188;DHT22;13141;50.414;8.050;2022-07-29T14:09:31;30.70;54.70
25188;DHT22;13141;50.414;8.050;2022-07-29T14:11:57;30.60;56.00
25188;DHT22;13141;50.414;8.050;2022-07-29T14:14:22;30.70;55.90
25188;DHT22;13141;50.414;8.050;2022-07-29T14:16:48;30.10;56.90
25188;DHT22;13141;50.414;8.050;2022-07-29T14:19:14;29.70;58.40
25188;DHT22;13141;50.414;8.050;2022-07-29T14:21:39;29.50;59.40
25188;DHT22;13141;50.414;8.050;2022-07-29T14:24:05;29.10;60.60
25188;DHT22;13141;50.414;8.050;2022-07-29T14:26:31;28.90;61.10
25188;DHT22;13141;50.414;8.050;2022-07-29T14:28:57;28.90;61.50
25188;DHT22;13141;50.414;8.050;2022-07-29T14:31:22;29.00;62.70
25188;DHT22;13141;50.414;8.050;2022-07-29T14:33:48;28.60;62.70
25188;DHT22;13141;50.414;8.050;2022-07-29T14:36:14;28.80;62.90
25188;DHT22;13141;50.414;8.050;2022-07-29T14:38:39;29.00;61.80
25188;DHT22;13141;50.414;8.050;2022-07-29T14:41:06;29.10;61.40
25188;DHT22;13141;50.414;8.050;2022-07-29T14:43:32;29.30;60.70
25188;DHT22;13141;50.414;8.050;2022-07-29T14:45:58;29.40;60.60
25188;DHT22;13141;50.414;8.050;2022-07-29T14:48:23;29.60;60.90
25188;DHT22;13141;50.414;8.050;2022-07-29T14:50:49;30.10;60.40
25188;DHT22;13141;50.414;8.050;2022-07-29T14:53:14;29.90;60.10
25188;DHT22;13141;50.414;8.050;2022-07-29T14:55:40;30.00;59.90
25188;DHT22;13141;50.414;8.050;2022-07-29T14:58:07;29.90;60.00
25188;DHT22;13141;50.414;8.050;2022-07-29T15:00:32;29.80;60.80
25188;DHT22;13141;50.414;8.050;2022-07-29T15:02:59;30.00;60.80
25188;DHT22;13141;50.414;8.050;2022-07-29T15:05:26;29.90;59.80
25188;DHT22;13141;50.414;8.050;2022-07-29T15:07:51;30.00;60.50
25188;DHT22;13141;50.414;8.050;2022-07-29T15:10:17;30.40;61.20
25188;DHT22;13141;50.414;8.050;2022-07-29T15:12:43;30.50;58.80
25188;DHT22;13141;50.414;8.050;2022-07-29T15:15:08;30.30;57.10
25188;DHT22;13141;50.414;8.050;2022-07-29T15:17:34;30.50;58.70
25188;DHT22;13141;50.414;8.050;2022-07-29T15:20:00;30.70;56.80
25188;DHT22;13141;50.414;8.050;2022-07-29T15:22:26;30.90;57.90
25188;DHT22;13141;50.414;8.050;2022-07-29T15:24:51;31.20;57.90
25188;DHT22;13141;50.414;8.050;2022-07-29T15:27:17;31.50;58.00
25188;DHT22;13141;50.414;8.050;2022-07-29T15:29:43;31.70;57.10
25188;DHT22;13141;50.414;8.050;2022-07-29T15:32:10;31.90;57.10
25188;DHT22;13141;50.414;8.050;2022-07-29T15:34:36;32.30;55.70
25188;DHT22;13141;50.414;8.050;2022-07-29T15:37:02;32.20;55.10
25188;DHT22;13141;50.414;8.050;2022-07-29T15:39:27;32.30;55.40
25188;DHT22;13141;50.414;8.050;2022-07-29T15:41:53;32.20;55.30
25188;DHT22;13141;50.414;8.050;2022-07-29T15:44:19;32.30;56.20
25188;DHT22;13141;50.414;8.050;2022-07-29T15:46:45;32.40;55.90
25188;DHT22;13141;50.414;8.050;2022-07-29T15:49:36;32.40;57.10
25188;DHT22;13141;50.414;8.050;2022-07-29T15:52:04;32.40;55.20
25188;DHT22;13141;50.414;8.050;2022-07-29T15:54:33;32.40;55.20
25188;DHT22;13141;50.414;8.050;2022-07-29T15:56:59;32.40;53.90
25188;DHT22;13141;50.414;8.050;2022-07-29T15:59:24;32.70;54.90
25188;DHT22;13141;50.414;8.050;2022-07-29T16:01:50;33.20;55.90
25188;DHT22;13141;50.414;8.050;2022-07-29T16:04:16;33.60;55.40
25188;DHT22;13141;50.414;8.050;2022-07-29T16:06:43;33.70;55.40
25188;DHT22;13141;50.414;8.050;2022-07-29T16:09:09;33.90;55.10
25188;DHT22;13141;50.414;8.050;2022-07-29T16:11:35;33.90;53.40
25188;DHT22;13141;50.414;8.050;2022-07-29T16:14:01;34.00;55.10
25188;DHT22;13141;50.414;8.050;2022-07-29T16:16:26;33.80;53.20
25188;DHT22;13141;50.414;8.050;2022-07-29T16:18:52;33.20;52.50